Charter Quote
Worldwide +1-877-727-2538 Call
Select Language Lang
SAFETY RELIABILITY EXPERIENCE

Private Jet Charter Services - Baoan Intl (ZGSZ)

Paramount Business Jets offers private jet charter flights and luxury airliner charters to and from Baoan Intl.

AIRPORT INFORMATION
ICAOZGSZ
IATASZX
LOCATIONShenzhen, China
FACILITY TYPEAIRPORT

At Paramount Business Jets you can hire chartered private jets to and from Baoan Intl with as little as 4 hours of notice. All flights booked via Paramount Business Jets are operated by certified direct air carriers that meet and exceed the FAA part 135 and 121 protocol or a foreign equivalent safety authority. Furthermore, Paramount Business Jets subscribes to ARGUS for their third party safety checks of operators, aircraft, and crews prior each and every flight to and from Baoan Intl and worldwide.

  • Quote a trip using Baoan Intl or call us 24/7 - 365 days a year at +1-877-727-2538.
Questions? Call +1-877-727-2538

METAR Weather Data at Baoan Intl, ZGSZ, SZX

STATIONZGSZ
OBSERVEDTue Dec 10, 05:00 UTC
NOWTue Dec 10, 05:48 UTC
AGE48 min ago
WINDW at 9 mph
VISIBILITYgreater than 7 miles
CLOUDSclear skies
TEMP68°F (20°C)
DEWPT48°F (9°C)
HUMIDITY49%
BAROMETER1018 hPa (30.06 in Hg)
METARZGSZ 100500Z 28004MPS CAVOK 20/09 Q1018 NOSIG

Call us on +1-877-727-2538 (24 Hours) to Hire a Private Jet or Get a Quick Quote.

Find Airports Near any Location

Processing
...